sensor_id;sensor_type;location;lat;lon;timestamp;P1;durP1;ratioP1;P2;durP2;ratioP2
53287;SDS011;39172;45.550;12.072;2023-11-21T00:00:52;16.58;;;14.13;;
53287;SDS011;39172;45.550;12.072;2023-11-21T00:06:54;14.88;;;12.68;;
53287;SDS011;39172;45.550;12.072;2023-11-21T00:12:55;12.57;;;10.35;;
53287;SDS011;39172;45.550;12.072;2023-11-21T00:18:56;12.60;;;10.23;;
53287;SDS011;39172;45.550;12.072;2023-11-21T00:24:58;13.82;;;11.73;;
53287;SDS011;39172;45.550;12.072;2023-11-21T00:30:59;13.77;;;11.68;;
53287;SDS011;39172;45.550;12.072;2023-11-21T00:37:00;15.95;;;13.43;;
53287;SDS011;39172;45.550;12.072;2023-11-21T00:43:01;13.60;;;11.65;;
53287;SDS011;39172;45.550;12.072;2023-11-21T00:49:02;10.88;;;9.52;;
53287;SDS011;39172;45.550;12.072;2023-11-21T00:55:05;9.95;;;8.13;;
53287;SDS011;39172;45.550;12.072;2023-11-21T01:01:08;9.80;;;7.82;;
53287;SDS011;39172;45.550;12.072;2023-11-21T01:07:09;10.45;;;8.95;;
53287;SDS011;39172;45.550;12.072;2023-11-21T01:13:10;11.85;;;10.52;;
53287;SDS011;39172;45.550;12.072;2023-11-21T01:19:13;13.30;;;11.65;;
53287;SDS011;39172;45.550;12.072;2023-11-21T01:25:13;19.23;;;16.17;;
53287;SDS011;39172;45.550;12.072;2023-11-21T01:31:15;17.33;;;13.98;;
53287;SDS011;39172;45.550;12.072;2023-11-21T01:37:18;13.45;;;11.70;;
53287;SDS011;39172;45.550;12.072;2023-11-21T01:43:19;12.55;;;10.57;;
53287;SDS011;39172;45.550;12.072;2023-11-21T01:49:20;12.20;;;10.25;;
53287;SDS011;39172;45.550;12.072;2023-11-21T01:55:21;15.88;;;13.48;;
53287;SDS011;39172;45.550;12.072;2023-11-21T02:01:22;13.43;;;11.90;;
53287;SDS011;39172;45.550;12.072;2023-11-21T02:07:23;15.15;;;12.50;;
53287;SDS011;39172;45.550;12.072;2023-11-21T02:13:25;17.05;;;13.38;;
53287;SDS011;39172;45.550;12.072;2023-11-21T02:19:26;19.85;;;16.67;;
53287;SDS011;39172;45.550;12.072;2023-11-21T02:25:28;22.05;;;17.42;;
53287;SDS011;39172;45.550;12.072;2023-11-21T02:31:29;18.45;;;14.98;;
53287;SDS011;39172;45.550;12.072;2023-11-21T02:37:30;14.68;;;12.25;;
53287;SDS011;39172;45.550;12.072;2023-11-21T02:43:50;11.68;;;10.10;;
53287;SDS011;39172;45.550;12.072;2023-11-21T02:50:10;15.07;;;13.23;;
53287;SDS011;39172;45.550;12.072;2023-11-21T02:56:29;13.23;;;11.83;;
53287;SDS011;39172;45.550;12.072;2023-11-21T03:02:50;11.77;;;10.57;;
53287;SDS011;39172;45.550;12.072;2023-11-21T03:08:51;11.32;;;9.63;;
53287;SDS011;39172;45.550;12.072;2023-11-21T03:15:10;11.40;;;9.68;;
53287;SDS011;39172;45.550;12.072;2023-11-21T03:21:30;10.47;;;9.27;;
53287;SDS011;39172;45.550;12.072;2023-11-21T03:27:49;20.10;;;12.27;;
53287;SDS011;39172;45.550;12.072;2023-11-21T03:34:25;14.77;;;12.48;;
53287;SDS011;39172;45.550;12.072;2023-11-21T03:40:27;13.80;;;12.30;;
53287;SDS011;39172;45.550;12.072;2023-11-21T03:46:46;14.00;;;12.50;;
53287;SDS011;39172;45.550;12.072;2023-11-21T03:53:05;15.35;;;13.02;;
53287;SDS011;39172;45.550;12.072;2023-11-21T03:59:25;11.40;;;9.35;;
53287;SDS011;39172;45.550;12.072;2023-11-21T04:05:46;8.65;;;7.63;;
53287;SDS011;39172;45.550;12.072;2023-11-21T04:12:07;8.32;;;7.25;;
53287;SDS011;39172;45.550;12.072;2023-11-21T04:18:28;7.15;;;6.18;;
53287;SDS011;39172;45.550;12.072;2023-11-21T04:24:48;6.83;;;5.80;;
53287;SDS011;39172;45.550;12.072;2023-11-21T04:31:08;9.10;;;8.15;;
53287;SDS011;39172;45.550;12.072;2023-11-21T04:37:27;11.27;;;10.00;;
53287;SDS011;39172;45.550;12.072;2023-11-21T04:43:46;8.77;;;6.93;;
53287;SDS011;39172;45.550;12.072;2023-11-21T04:50:07;8.35;;;7.45;;
53287;SDS011;39172;45.550;12.072;2023-11-21T04:56:26;8.30;;;7.40;;
53287;SDS011;39172;45.550;12.072;2023-11-21T05:02:46;8.40;;;5.17;;
53287;SDS011;39172;45.550;12.072;2023-11-21T05:09:05;10.30;;;9.20;;
53287;SDS011;39172;45.550;12.072;2023-11-21T05:15:25;7.88;;;6.38;;
53287;SDS011;39172;45.550;12.072;2023-11-21T05:21:44;6.30;;;5.60;;
53287;SDS011;39172;45.550;12.072;2023-11-21T05:28:03;6.97;;;6.28;;
53287;SDS011;39172;45.550;12.072;2023-11-21T05:34:04;14.65;;;13.05;;
53287;SDS011;39172;45.550;12.072;2023-11-21T05:40:27;16.85;;;14.43;;
53287;SDS011;39172;45.550;12.072;2023-11-21T05:46:48;15.95;;;13.80;;
53287;SDS011;39172;45.550;12.072;2023-11-21T05:53:08;16.80;;;14.17;;
53287;SDS011;39172;45.550;12.072;2023-11-21T05:59:30;15.38;;;13.45;;
53287;SDS011;39172;45.550;12.072;2023-11-21T06:05:34;15.15;;;13.35;;
53287;SDS011;39172;45.550;12.072;2023-11-21T06:11:53;12.85;;;11.23;;
53287;SDS011;39172;45.550;12.072;2023-11-21T06:18:12;11.63;;;10.30;;
53287;SDS011;39172;45.550;12.072;2023-11-21T06:24:32;15.98;;;13.68;;
53287;SDS011;39172;45.550;12.072;2023-11-21T06:30:51;14.88;;;12.70;;
53287;SDS011;39172;45.550;12.072;2023-11-21T06:36:53;13.20;;;11.75;;
53287;SDS011;39172;45.550;12.072;2023-11-21T06:43:13;12.95;;;10.57;;
53287;SDS011;39172;45.550;12.072;2023-11-21T06:49:33;10.48;;;6.57;;
53287;SDS011;39172;45.550;12.072;2023-11-21T06:55:52;11.82;;;9.70;;
53287;SDS011;39172;45.550;12.072;2023-11-21T07:02:11;10.25;;;9.05;;
53287;SDS011;39172;45.550;12.072;2023-11-21T07:08:26;9.63;;;7.72;;
53287;SDS011;39172;45.550;12.072;2023-11-21T07:14:45;9.25;;;8.25;;
53287;SDS011;39172;45.550;12.072;2023-11-21T07:21:04;9.57;;;8.27;;
53287;SDS011;39172;45.550;12.072;2023-11-21T07:27:25;10.15;;;8.93;;
53287;SDS011;39172;45.550;12.072;2023-11-21T07:33:44;9.43;;;7.85;;
53287;SDS011;39172;45.550;12.072;2023-11-21T07:40:06;8.43;;;7.50;;
53287;SDS011;39172;45.550;12.072;2023-11-21T07:46:09;10.57;;;9.48;;
53287;SDS011;39172;45.550;12.072;2023-11-21T07:52:10;13.18;;;11.77;;
53287;SDS011;39172;45.550;12.072;2023-11-21T07:58:11;14.63;;;12.20;;
53287;SDS011;39172;45.550;12.072;2023-11-21T08:04:13;10.10;;;8.70;;
53287;SDS011;39172;45.550;12.072;2023-11-21T08:10:14;9.30;;;7.82;;
53287;SDS011;39172;45.550;12.072;2023-11-21T08:16:15;16.10;;;14.18;;
53287;SDS011;39172;45.550;12.072;2023-11-21T08:22:17;29.55;;;23.65;;
53287;SDS011;39172;45.550;12.072;2023-11-21T08:28:19;58.55;;;31.88;;
53287;SDS011;39172;45.550;12.072;2023-11-21T08:34:20;47.58;;;26.30;;
53287;SDS011;39172;45.550;12.072;2023-11-21T08:40:21;46.13;;;24.92;;
53287;SDS011;39172;45.550;12.072;2023-11-21T08:46:22;45.13;;;23.83;;
53287;SDS011;39172;45.550;12.072;2023-11-21T08:52:23;65.13;;;32.85;;
53287;SDS011;39172;45.550;12.072;2023-11-21T08:58:24;33.92;;;19.65;;
53287;SDS011;39172;45.550;12.072;2023-11-21T09:04:25;42.00;;;21.85;;
53287;SDS011;39172;45.550;12.072;2023-11-21T09:10:26;43.80;;;23.48;;
53287;SDS011;39172;45.550;12.072;2023-11-21T09:16:29;46.00;;;24.73;;
53287;SDS011;39172;45.550;12.072;2023-11-21T09:22:31;44.72;;;24.60;;
53287;SDS011;39172;45.550;12.072;2023-11-21T09:28:32;36.17;;;20.23;;
53287;SDS011;39172;45.550;12.072;2023-11-21T09:34:33;37.25;;;19.08;;
53287;SDS011;39172;45.550;12.072;2023-11-21T09:40:39;37.00;;;20.38;;
53287;SDS011;39172;45.550;12.072;2023-11-21T09:46:40;41.13;;;21.23;;
53287;SDS011;39172;45.550;12.072;2023-11-21T09:52:49;41.97;;;22.58;;
53287;SDS011;39172;45.550;12.072;2023-11-21T09:58:52;41.45;;;23.15;;
53287;SDS011;39172;45.550;12.072;2023-11-21T10:04:54;40.58;;;20.40;;
53287;SDS011;39172;45.550;12.072;2023-11-21T10:10:56;46.78;;;23.65;;
53287;SDS011;39172;45.550;12.072;2023-11-21T10:16:58;39.72;;;20.92;;
53287;SDS011;39172;45.550;12.072;2023-11-21T10:23:00;40.85;;;22.88;;
53287;SDS011;39172;45.550;12.072;2023-11-21T10:29:04;49.63;;;25.77;;
53287;SDS011;39172;45.550;12.072;2023-11-21T10:35:05;42.17;;;21.30;;
53287;SDS011;39172;45.550;12.072;2023-11-21T10:41:11;40.47;;;22.60;;
53287;SDS011;39172;45.550;12.072;2023-11-21T10:47:13;39.47;;;20.88;;
53287;SDS011;39172;45.550;12.072;2023-11-21T10:53:16;46.65;;;22.95;;
53287;SDS011;39172;45.550;12.072;2023-11-21T10:59:19;40.72;;;24.05;;
53287;SDS011;39172;45.550;12.072;2023-11-21T11:05:26;40.00;;;22.23;;
53287;SDS011;39172;45.550;12.072;2023-11-21T11:11:30;19.70;;;16.85;;
53287;SDS011;39172;45.550;12.072;2023-11-21T11:17:31;16.15;;;13.25;;
53287;SDS011;39172;45.550;12.072;2023-11-21T11:30:04;12.13;;;7.77;;
53287;SDS011;39172;45.550;12.072;2023-11-21T11:42:30;8.25;;;6.95;;
53287;SDS011;39172;45.550;12.072;2023-11-21T11:48:34;9.77;;;7.85;;
53287;SDS011;39172;45.550;12.072;2023-11-21T11:54:36;10.57;;;8.43;;
53287;SDS011;39172;45.550;12.072;2023-11-21T12:00:37;9.93;;;7.88;;
53287;SDS011;39172;45.550;12.072;2023-11-21T12:06:41;8.93;;;7.80;;
53287;SDS011;39172;45.550;12.072;2023-11-21T12:12:43;8.95;;;7.40;;
53287;SDS011;39172;45.550;12.072;2023-11-21T12:18:45;8.82;;;6.93;;
53287;SDS011;39172;45.550;12.072;2023-11-21T12:24:48;6.20;;;5.60;;
53287;SDS011;39172;45.550;12.072;2023-11-21T12:30:50;4.70;;;4.20;;
53287;SDS011;39172;45.550;12.072;2023-11-21T12:36:51;5.40;;;4.50;;
53287;SDS011;39172;45.550;12.072;2023-11-21T12:42:59;4.60;;;3.67;;
53287;SDS011;39172;45.550;12.072;2023-11-21T12:49:02;4.45;;;3.72;;
53287;SDS011;39172;45.550;12.072;2023-11-21T12:55:04;4.05;;;2.80;;
53287;SDS011;39172;45.550;12.072;2023-11-21T13:01:08;4.70;;;3.50;;
53287;SDS011;39172;45.550;12.072;2023-11-21T13:07:12;5.50;;;3.78;;
53287;SDS011;39172;45.550;12.072;2023-11-21T13:13:16;5.63;;;3.47;;
53287;SDS011;39172;45.550;12.072;2023-11-21T13:19:17;5.07;;;3.80;;
53287;SDS011;39172;45.550;12.072;2023-11-21T13:25:23;6.68;;;3.03;;
53287;SDS011;39172;45.550;12.072;2023-11-21T13:31:24;3.95;;;2.00;;
53287;SDS011;39172;45.550;12.072;2023-11-21T13:37:33;4.28;;;2.30;;
53287;SDS011;39172;45.550;12.072;2023-11-21T13:43:35;4.00;;;2.03;;
53287;SDS011;39172;45.550;12.072;2023-11-21T13:49:37;4.18;;;1.85;;
53287;SDS011;39172;45.550;12.072;2023-11-21T13:55:41;4.43;;;2.65;;
53287;SDS011;39172;45.550;12.072;2023-11-21T14:01:42;3.92;;;2.08;;
53287;SDS011;39172;45.550;12.072;2023-11-21T14:08:04;2.55;;;1.65;;
53287;SDS011;39172;45.550;12.072;2023-11-21T14:14:06;2.78;;;1.63;;
53287;SDS011;39172;45.550;12.072;2023-11-21T14:20:07;3.38;;;1.95;;
53287;SDS011;39172;45.550;12.072;2023-11-21T14:26:18;4.40;;;2.58;;
53287;SDS011;39172;45.550;12.072;2023-11-21T14:32:21;3.90;;;2.03;;
53287;SDS011;39172;45.550;12.072;2023-11-21T14:38:26;4.68;;;2.88;;
53287;SDS011;39172;45.550;12.072;2023-11-21T14:44:29;3.63;;;2.72;;
53287;SDS011;39172;45.550;12.072;2023-11-21T14:50:34;2.50;;;1.65;;
53287;SDS011;39172;45.550;12.072;2023-11-21T14:57:10;3.13;;;1.70;;
53287;SDS011;39172;45.550;12.072;2023-11-21T15:03:13;4.78;;;2.40;;
53287;SDS011;39172;45.550;12.072;2023-11-21T15:09:34;3.53;;;1.75;;
53287;SDS011;39172;45.550;12.072;2023-11-21T15:15:40;3.85;;;1.90;;
53287;SDS011;39172;45.550;12.072;2023-11-21T15:21:42;4.03;;;2.03;;
53287;SDS011;39172;45.550;12.072;2023-11-21T15:27:44;4.53;;;2.03;;
53287;SDS011;39172;45.550;12.072;2023-11-21T15:33:51;5.18;;;1.80;;
53287;SDS011;39172;45.550;12.072;2023-11-21T15:39:53;6.05;;;1.48;;
53287;SDS011;39172;45.550;12.072;2023-11-21T15:45:54;4.45;;;1.50;;
53287;SDS011;39172;45.550;12.072;2023-11-21T15:51:57;6.05;;;2.15;;
53287;SDS011;39172;45.550;12.072;2023-11-21T15:58:00;5.55;;;1.80;;
53287;SDS011;39172;45.550;12.072;2023-11-21T16:04:04;10.00;;;2.42;;
53287;SDS011;39172;45.550;12.072;2023-11-21T16:10:07;4.68;;;2.08;;
53287;SDS011;39172;45.550;12.072;2023-11-21T16:16:11;7.53;;;3.13;;
53287;SDS011;39172;45.550;12.072;2023-11-21T16:22:13;10.45;;;3.67;;
53287;SDS011;39172;45.550;12.072;2023-11-21T16:28:14;6.13;;;3.00;;
53287;SDS011;39172;45.550;12.072;2023-11-21T16:34:15;6.47;;;3.80;;
53287;SDS011;39172;45.550;12.072;2023-11-21T16:40:17;5.18;;;2.85;;
53287;SDS011;39172;45.550;12.072;2023-11-21T16:46:21;9.30;;;4.20;;
53287;SDS011;39172;45.550;12.072;2023-11-21T16:52:23;8.25;;;4.18;;
53287;SDS011;39172;45.550;12.072;2023-11-21T16:58:25;12.32;;;5.13;;
53287;SDS011;39172;45.550;12.072;2023-11-21T17:04:27;8.77;;;6.13;;
53287;SDS011;39172;45.550;12.072;2023-11-21T17:10:28;13.77;;;6.20;;
53287;SDS011;39172;45.550;12.072;2023-11-21T17:16:29;12.68;;;8.95;;
53287;SDS011;39172;45.550;12.072;2023-11-21T17:22:30;11.95;;;8.23;;
53287;SDS011;39172;45.550;12.072;2023-11-21T17:28:32;7.82;;;6.72;;
53287;SDS011;39172;45.550;12.072;2023-11-21T17:34:33;6.00;;;5.30;;
53287;SDS011;39172;45.550;12.072;2023-11-21T17:40:34;5.10;;;4.00;;
53287;SDS011;39172;45.550;12.072;2023-11-21T17:46:36;4.38;;;3.63;;
53287;SDS011;39172;45.550;12.072;2023-11-21T17:52:37;3.60;;;3.30;;
53287;SDS011;39172;45.550;12.072;2023-11-21T17:58:39;3.92;;;3.17;;
53287;SDS011;39172;45.550;12.072;2023-11-21T18:04:40;4.00;;;3.40;;
53287;SDS011;39172;45.550;12.072;2023-11-21T18:10:42;5.32;;;4.03;;
53287;SDS011;39172;45.550;12.072;2023-11-21T18:16:43;3.50;;;3.13;;
53287;SDS011;39172;45.550;12.072;2023-11-21T18:22:44;4.53;;;3.72;;
53287;SDS011;39172;45.550;12.072;2023-11-21T18:28:45;5.05;;;3.92;;
53287;SDS011;39172;45.550;12.072;2023-11-21T18:34:46;4.82;;;3.80;;
53287;SDS011;39172;45.550;12.072;2023-11-21T18:40:47;5.70;;;4.28;;
53287;SDS011;39172;45.550;12.072;2023-11-21T18:46:48;4.57;;;4.00;;
53287;SDS011;39172;45.550;12.072;2023-11-21T18:52:49;4.60;;;3.78;;
53287;SDS011;39172;45.550;12.072;2023-11-21T18:58:50;4.60;;;3.72;;
53287;SDS011;39172;45.550;12.072;2023-11-21T19:04:51;3.30;;;3.00;;
53287;SDS011;39172;45.550;12.072;2023-11-21T19:10:53;3.90;;;2.97;;
53287;SDS011;39172;45.550;12.072;2023-11-21T19:16:55;3.15;;;2.60;;
53287;SDS011;39172;45.550;12.072;2023-11-21T19:22:56;2.63;;;2.33;;
53287;SDS011;39172;45.550;12.072;2023-11-21T19:28:58;4.78;;;3.55;;
53287;SDS011;39172;45.550;12.072;2023-11-21T19:34:59;7.38;;;4.93;;
53287;SDS011;39172;45.550;12.072;2023-11-21T19:41:00;3.55;;;3.13;;
53287;SDS011;39172;45.550;12.072;2023-11-21T19:47:03;3.75;;;3.33;;
53287;SDS011;39172;45.550;12.072;2023-11-21T19:53:04;3.20;;;2.63;;
53287;SDS011;39172;45.550;12.072;2023-11-21T19:59:05;2.97;;;2.47;;
53287;SDS011;39172;45.550;12.072;2023-11-21T20:05:06;3.28;;;2.97;;
53287;SDS011;39172;45.550;12.072;2023-11-21T20:11:07;4.68;;;4.00;;
53287;SDS011;39172;45.550;12.072;2023-11-21T20:17:08;8.32;;;5.78;;
53287;SDS011;39172;45.550;12.072;2023-11-21T20:23:10;5.40;;;4.85;;
53287;SDS011;39172;45.550;12.072;2023-11-21T20:29:11;3.80;;;3.47;;
53287;SDS011;39172;45.550;12.072;2023-11-21T20:35:12;5.28;;;4.65;;
53287;SDS011;39172;45.550;12.072;2023-11-21T20:41:13;6.15;;;5.55;;
53287;SDS011;39172;45.550;12.072;2023-11-21T20:47:14;12.60;;;10.18;;
53287;SDS011;39172;45.550;12.072;2023-11-21T20:53:15;11.90;;;9.48;;
53287;SDS011;39172;45.550;12.072;2023-11-21T20:59:16;12.05;;;9.70;;
53287;SDS011;39172;45.550;12.072;2023-11-21T21:05:18;10.82;;;9.20;;
53287;SDS011;39172;45.550;12.072;2023-11-21T21:11:19;11.32;;;9.57;;
53287;SDS011;39172;45.550;12.072;2023-11-21T21:17:20;11.68;;;9.32;;
53287;SDS011;39172;45.550;12.072;2023-11-21T21:23:22;12.15;;;9.65;;
53287;SDS011;39172;45.550;12.072;2023-11-21T21:29:22;13.73;;;10.80;;
53287;SDS011;39172;45.550;12.072;2023-11-21T21:35:26;10.52;;;9.23;;
53287;SDS011;39172;45.550;12.072;2023-11-21T21:41:29;9.25;;;8.25;;
53287;SDS011;39172;45.550;12.072;2023-11-21T21:47:30;8.85;;;7.57;;
53287;SDS011;39172;45.550;12.072;2023-11-21T21:53:31;8.25;;;7.20;;
53287;SDS011;39172;45.550;12.072;2023-11-21T21:59:32;8.38;;;7.45;;
53287;SDS011;39172;45.550;12.072;2023-11-21T22:05:33;6.30;;;5.53;;
53287;SDS011;39172;45.550;12.072;2023-11-21T22:11:34;8.68;;;7.03;;
53287;SDS011;39172;45.550;12.072;2023-11-21T22:17:35;8.85;;;7.60;;
53287;SDS011;39172;45.550;12.072;2023-11-21T22:23:38;10.27;;;8.65;;
53287;SDS011;39172;45.550;12.072;2023-11-21T22:29:40;9.48;;;7.63;;
53287;SDS011;39172;45.550;12.072;2023-11-21T22:35:41;7.95;;;7.00;;
53287;SDS011;39172;45.550;12.072;2023-11-21T22:41:46;10.10;;;7.88;;
53287;SDS011;39172;45.550;12.072;2023-11-21T22:47:48;8.88;;;6.93;;
53287;SDS011;39172;45.550;12.072;2023-11-21T22:53:49;7.93;;;6.47;;
53287;SDS011;39172;45.550;12.072;2023-11-21T22:59:50;6.25;;;5.22;;
53287;SDS011;39172;45.550;12.072;2023-11-21T23:05:52;6.32;;;5.25;;
53287;SDS011;39172;45.550;12.072;2023-11-21T23:11:53;7.20;;;6.13;;
53287;SDS011;39172;45.550;12.072;2023-11-21T23:17:54;5.13;;;4.55;;
53287;SDS011;39172;45.550;12.072;2023-11-21T23:23:58;5.75;;;5.10;;
53287;SDS011;39172;45.550;12.072;2023-11-21T23:30:10;4.25;;;3.80;;
53287;SDS011;39172;45.550;12.072;2023-11-21T23:36:11;4.15;;;3.50;;
53287;SDS011;39172;45.550;12.072;2023-11-21T23:42:12;4.10;;;3.47;;
53287;SDS011;39172;45.550;12.072;2023-11-21T23:48:16;3.97;;;3.25;;
53287;SDS011;39172;45.550;12.072;2023-11-21T23:54:16;3.85;;;3.13;;
